createdAt,value
2022-11-16T00:00:29.800Z,100053.22
2022-11-16T00:02:56.422Z,100049.81
2022-11-16T00:05:28.314Z,100051.69
2022-11-16T00:07:55.297Z,100042.84
2022-11-16T00:10:26.184Z,100045.69
2022-11-16T00:12:52.915Z,100034.28
2022-11-16T00:15:19.766Z,100037.19
2022-11-16T00:17:46.584Z,100045.91
2022-11-16T00:20:16.785Z,100041.47
2022-11-16T00:22:43.445Z,100046.25
2022-11-16T00:25:12.798Z,100041.88
2022-11-16T00:27:39.692Z,100038.63
2022-11-16T00:30:06.810Z,100027.34
2022-11-16T00:32:35.816Z,100028.03
2022-11-16T00:35:32.603Z,100030.50
2022-11-16T00:37:59.365Z,100015.78
2022-11-16T00:40:26.110Z,100019.44
2022-11-16T00:42:52.774Z,100023.09
2022-11-16T00:45:19.417Z,100011.09
2022-11-16T00:47:46.108Z,100012.44
2022-11-16T00:50:12.787Z,100019.31
2022-11-16T00:52:39.461Z,100011.69
2022-11-16T00:55:06.482Z,100011.41
2022-11-16T00:57:33.534Z,100014.34
2022-11-16T01:00:06.880Z,100011.53
2022-11-16T01:02:34.638Z,100008.97
2022-11-16T01:05:02.533Z,100003.69
2022-11-16T01:07:29.703Z,100004.78
2022-11-16T01:09:59.959Z,100003.56
2022-11-16T01:12:26.620Z,100000.19
2022-11-16T01:14:59.536Z,99992.69
2022-11-16T01:17:26.289Z,100000.63
2022-11-16T01:19:52.984Z,100004.63
2022-11-16T01:22:21.941Z,99995.41
2022-11-16T01:24:48.640Z,100003.16
2022-11-16T01:27:17.661Z,100000.16
2022-11-16T01:29:45.873Z,99995.84
2022-11-16T01:32:13.635Z,99999.91
2022-11-16T01:34:40.707Z,100001.44
2022-11-16T01:37:21.159Z,99993.69
2022-11-16T01:39:49.254Z,99997.97
2022-11-16T01:42:20.444Z,99997.66
2022-11-16T01:44:55.638Z,100002.94
2022-11-16T01:47:22.268Z,100002.03
2022-11-16T01:49:53.703Z,99990.78
2022-11-16T01:52:32.150Z,99990.88
2022-11-16T01:54:59.506Z,99985.09
2022-11-16T01:57:31.543Z,99978.59
2022-11-16T02:00:06.599Z,99983.72
2022-11-16T02:02:56.475Z,99984.47
2022-11-16T02:05:54.200Z,99989.56
2022-11-16T02:08:50.375Z,99988.63
2022-11-16T02:11:18.416Z,99985.31
2022-11-16T02:13:54.552Z,99983.34
2022-11-16T02:16:51.864Z,99978.84
2022-11-16T02:19:29.668Z,99977.13
2022-11-16T02:21:59.535Z,99973.38
2022-11-16T02:24:26.569Z,99975.28
2022-11-16T02:26:59.225Z,99972.28
2022-11-16T02:29:35.938Z,99967.78
2022-11-16T02:32:11.830Z,99966.09
2022-11-16T02:34:40.244Z,99950.16
2022-11-16T02:37:07.338Z,99954.59
2022-11-16T02:39:34.025Z,99949.59
2022-11-16T02:42:01.389Z,99945.44
2022-11-16T02:44:33.398Z,99946.66
2022-11-16T02:47:03.149Z,99942.31
2022-11-16T02:49:29.769Z,99938.38
2022-11-16T02:51:56.407Z,99936.00
2022-11-16T02:54:24.724Z,99938.25
2022-11-16T02:57:03.595Z,99927.59
2022-11-16T02:59:44.849Z,99928.31
2022-11-16T03:02:29.978Z,99929.88
2022-11-16T03:05:01.751Z,99923.94
2022-11-16T03:07:43.244Z,99930.31
2022-11-16T03:10:09.897Z,99918.16
2022-11-16T03:12:36.517Z,99920.06
2022-11-16T03:15:04.084Z,99920.59
2022-11-16T03:17:36.864Z,99907.19
2022-11-16T03:20:22.570Z,99919.41
2022-11-16T03:22:50.097Z,99913.69
2022-11-16T03:25:17.671Z,99914.59
2022-11-16T03:28:02.379Z,99913.97
2022-11-16T03:30:30.381Z,99922.63
2022-11-16T03:33:00.365Z,99921.69
2022-11-16T03:35:31.748Z,99926.03
2022-11-16T03:37:58.896Z,99923.59
2022-11-16T03:40:27.292Z,99922.47
2022-11-16T03:42:53.906Z,99915.72
2022-11-16T03:45:20.604Z,99918.63
2022-11-16T03:47:52.144Z,99923.81
2022-11-16T03:50:19.916Z,99917.00
2022-11-16T03:52:46.671Z,99909.53
2022-11-16T03:55:14.229Z,99918.38
2022-11-16T03:57:44.487Z,99914.81
2022-11-16T04:00:11.577Z,99913.03
2022-11-16T04:02:41.809Z,99908.59
2022-11-16T04:05:32.461Z,99909.00
2022-11-16T04:08:18.178Z,99896.56
2022-11-16T04:11:03.752Z,99893.34
2022-11-16T04:13:51.100Z,99897.25
2022-11-16T04:16:36.548Z,99899.31
2022-11-16T04:19:24.983Z,99888.81
2022-11-16T04:22:11.348Z,99888.81
2022-11-16T04:24:41.356Z,99891.28
2022-11-16T04:27:27.850Z,99890.31
2022-11-16T04:29:55.242Z,99883.94
2022-11-16T04:32:40.924Z,99881.75
2022-11-16T04:35:26.700Z,99884.50
2022-11-16T04:37:54.808Z,99878.72
2022-11-16T04:40:31.716Z,99880.34
2022-11-16T04:42:59.878Z,99871.84
2022-11-16T04:45:47.900Z,99867.44
2022-11-16T04:48:18.381Z,99874.69
2022-11-16T04:50:45.531Z,99861.50
2022-11-16T04:53:15.312Z,99865.88
2022-11-16T04:55:56.653Z,99861.72
2022-11-16T04:58:26.830Z,99862.41
2022-11-16T05:00:54.084Z,99861.72
2022-11-16T05:03:21.839Z,99851.00
2022-11-16T05:06:25.801Z,99857.56
2022-11-16T05:12:16.139Z,99858.81
2022-11-16T05:15:00.365Z,99864.47
2022-11-16T05:20:49.182Z,99856.44
2022-11-16T05:24:20.424Z,99863.44
2022-11-16T05:33:48.348Z,99860.31
2022-11-16T05:36:16.316Z,99856.06
2022-11-16T05:38:43.145Z,99857.38
2022-11-16T05:41:10.386Z,99858.03
2022-11-16T05:43:39.058Z,99872.00
2022-11-16T05:46:16.331Z,99856.63
2022-11-16T05:48:45.835Z,99863.72
2022-11-16T05:51:14.734Z,99870.69
2022-11-16T05:56:28.306Z,99861.16
2022-11-16T05:58:55.241Z,99875.09
2022-11-16T06:01:22.100Z,99877.19
2022-11-16T06:03:49.900Z,99882.00
2022-11-16T06:06:17.638Z,99883.63
2022-11-16T06:08:44.508Z,99889.16
2022-11-16T06:11:15.004Z,99890.38
2022-11-16T06:13:42.947Z,99892.00
2022-11-16T06:16:11.229Z,99883.94
2022-11-16T06:18:41.740Z,99890.34
2022-11-16T06:30:50.279Z,99898.13
2022-11-16T06:37:25.991Z,99894.91
2022-11-16T06:40:41.494Z,99894.31
2022-11-16T06:46:53.325Z,99899.63
2022-11-16T06:49:20.037Z,99900.38
2022-11-16T06:51:48.009Z,99909.41
2022-11-16T06:54:15.032Z,99897.94
2022-11-16T06:56:41.703Z,99905.19
2022-11-16T06:59:09.562Z,99906.69
2022-11-16T07:01:36.349Z,99900.56
2022-11-16T07:04:12.164Z,99902.91
2022-11-16T07:06:41.432Z,99907.66
2022-11-16T07:09:09.164Z,99909.25
2022-11-16T07:11:36.221Z,99911.75
2022-11-16T07:14:03.499Z,99913.03
2022-11-16T07:16:30.375Z,99913.59
2022-11-16T07:19:00.864Z,99924.00
2022-11-16T07:21:29.940Z,99927.94
2022-11-16T07:23:58.299Z,99930.03
2022-11-16T07:26:25.006Z,99934.38
2022-11-16T07:29:03.196Z,99930.31
2022-11-16T07:31:30.871Z,99942.22
2022-11-16T07:34:16.205Z,99936.47
2022-11-16T07:37:02.737Z,99940.50
2022-11-16T07:39:29.441Z,99929.66
2022-11-16T07:41:56.473Z,99931.91
2022-11-16T07:44:38.870Z,99935.13
2022-11-16T07:47:09.069Z,99940.47
2022-11-16T07:49:36.141Z,99935.75
2022-11-16T07:52:10.544Z,99938.59
2022-11-16T07:54:53.226Z,99930.00
2022-11-16T07:57:22.969Z,99925.59
2022-11-16T07:59:51.306Z,99928.84
2022-11-16T08:02:18.120Z,99934.88
2022-11-16T08:04:45.375Z,99919.88
2022-11-16T08:07:12.369Z,99928.69
2022-11-16T08:09:46.360Z,99922.72
2022-11-16T08:12:15.022Z,99924.53
2022-11-16T08:14:41.746Z,99933.66
2022-11-16T08:17:08.601Z,99920.44
2022-11-16T08:19:39.502Z,99926.88
2022-11-16T08:22:06.932Z,99921.50
2022-11-16T08:24:33.820Z,99918.13
2022-11-16T08:27:00.642Z,99916.22
2022-11-16T08:29:27.458Z,99921.97
2022-11-16T08:31:56.595Z,99922.94
2022-11-16T08:34:26.500Z,99914.53
2022-11-16T08:36:58.147Z,99917.88
2022-11-16T08:39:32.929Z,99913.19
2022-11-16T08:41:59.804Z,99915.56
2022-11-16T08:44:26.390Z,99919.63
2022-11-16T08:46:55.397Z,99925.59
2022-11-16T08:49:35.800Z,99926.22
2022-11-16T08:52:02.474Z,99919.09
2022-11-16T08:54:30.580Z,99921.91
2022-11-16T08:57:00.040Z,99915.16
2022-11-16T08:59:29.390Z,99916.84
2022-11-16T09:02:00.532Z,99913.97
2022-11-16T09:04:29.613Z,99916.94
2022-11-16T09:07:00.437Z,99913.97
2022-11-16T09:09:27.058Z,99926.59
2022-11-16T09:11:54.777Z,99911.09
2022-11-16T09:14:22.089Z,99918.47
2022-11-16T09:16:50.898Z,99920.31
2022-11-16T09:19:17.770Z,99913.78
2022-11-16T09:21:45.733Z,99918.81
2022-11-16T09:24:12.332Z,99912.50
2022-11-16T09:26:38.995Z,99917.22
2022-11-16T09:29:05.663Z,99907.03
2022-11-16T09:31:34.832Z,99904.06
2022-11-16T09:34:01.598Z,99906.47
2022-11-16T09:36:28.908Z,99902.91
2022-11-16T09:39:29.422Z,99896.19
2022-11-16T09:42:03.575Z,99893.91
2022-11-16T09:44:34.574Z,99888.00
2022-11-16T09:47:01.272Z,99892.69
2022-11-16T09:49:36.568Z,99887.00
2022-11-16T09:52:04.021Z,99883.94
2022-11-16T09:54:34.091Z,99888.34
2022-11-16T09:57:01.314Z,99879.41
2022-11-16T09:59:30.004Z,99885.56
2022-11-16T10:02:02.161Z,99878.59
2022-11-16T10:04:38.992Z,99880.09
2022-11-16T10:07:06.633Z,99876.03
2022-11-16T10:09:33.396Z,99873.47
2022-11-16T10:12:00.047Z,99863.34
2022-11-16T10:14:32.936Z,99864.63
2022-11-16T10:17:05.455Z,99865.88
2022-11-16T10:19:52.299Z,99866.06
2022-11-16T10:22:25.072Z,99865.19
2022-11-16T10:24:58.342Z,99859.19
2022-11-16T10:27:44.715Z,99842.47
2022-11-16T10:30:17.746Z,99846.19
2022-11-16T10:32:55.241Z,99846.88
2022-11-16T10:35:33.117Z,99842.97
2022-11-16T10:38:00.536Z,99843.75
2022-11-16T10:40:35.362Z,99843.91
2022-11-16T10:43:18.290Z,99844.44
2022-11-16T10:45:58.060Z,99837.59
2022-11-16T10:48:42.901Z,99839.75
2022-11-16T10:51:10.062Z,99831.22
2022-11-16T10:53:37.877Z,99827.72
2022-11-16T10:56:16.252Z,99822.53
2022-11-16T10:58:52.413Z,99833.00
2022-11-16T11:01:38.600Z,99827.84
2022-11-16T11:04:15.928Z,99822.84
2022-11-16T11:06:44.030Z,99826.22
2022-11-16T11:09:23.158Z,99820.38
2022-11-16T11:12:21.818Z,99826.22
2022-11-16T11:15:15.135Z,99820.66
2022-11-16T11:17:42.952Z,99823.88
2022-11-16T11:20:39.100Z,99823.72
2022-11-16T11:23:14.511Z,99832.84
2022-11-16T11:25:57.343Z,99827.56
2022-11-16T11:28:28.638Z,99831.63
2022-11-16T11:31:10.095Z,99830.75
2022-11-16T11:33:38.327Z,99815.03
2022-11-16T11:36:06.663Z,99830.88
2022-11-16T11:38:33.894Z,99821.81
2022-11-16T11:41:01.328Z,99814.56
2022-11-16T11:43:28.585Z,99819.66
2022-11-16T11:46:06.274Z,99814.00
2022-11-16T11:48:49.895Z,99816.63
2022-11-16T11:51:21.805Z,99811.63
2022-11-16T11:53:54.589Z,99818.97
2022-11-16T11:56:21.200Z,99807.38
2022-11-16T11:58:48.294Z,99811.06
2022-11-16T12:01:25.233Z,99801.47
2022-11-16T12:04:07.798Z,99803.34
2022-11-16T12:06:44.303Z,99807.69
2022-11-16T12:09:23.665Z,99800.13
2022-11-16T12:11:55.586Z,99806.09
2022-11-16T12:14:49.797Z,99811.06
2022-11-16T12:17:24.273Z,99806.19
2022-11-16T12:19:59.723Z,99820.22
2022-11-16T12:22:36.085Z,99814.59
2022-11-16T12:25:22.985Z,99813.91
2022-11-16T12:28:17.303Z,99821.16
2022-11-16T12:30:49.473Z,99817.97
2022-11-16T12:33:48.140Z,99813.91
2022-11-16T12:36:14.916Z,99808.94
2022-11-16T12:38:50.368Z,99822.50
2022-11-16T12:41:20.162Z,99812.56
2022-11-16T12:43:53.337Z,99811.47
2022-11-16T12:46:38.305Z,99812.22
2022-11-16T12:49:12.143Z,99814.75
2022-11-16T12:51:41.767Z,99813.53
2022-11-16T12:54:15.524Z,99826.19
2022-11-16T12:56:49.260Z,99830.59
2022-11-16T12:59:31.277Z,99816.66
2022-11-16T13:02:01.506Z,99825.16
2022-11-16T13:04:37.178Z,99825.63
2022-11-16T13:07:10.477Z,99813.91
2022-11-16T13:09:38.852Z,99813.53
2022-11-16T13:12:14.332Z,99814.47
2022-11-16T13:14:43.665Z,99817.97
2022-11-16T13:17:18.268Z,99807.22
2022-11-16T13:19:45.550Z,99810.91
2022-11-16T13:22:14.718Z,99810.13
2022-11-16T13:25:01.381Z,99807.28
2022-11-16T13:27:31.004Z,99804.47
2022-11-16T13:30:05.255Z,99810.34
2022-11-16T13:32:31.956Z,99804.28
2022-11-16T13:34:59.119Z,99804.66
2022-11-16T13:37:39.849Z,99810.69
2022-11-16T13:40:07.808Z,99802.69
2022-11-16T13:42:35.560Z,99806.66
2022-11-16T13:45:21.250Z,99796.00
2022-11-16T13:47:57.264Z,99791.66
2022-11-16T13:50:27.175Z,99796.72
2022-11-16T13:53:46.365Z,99797.97
2022-11-16T13:55:47.152Z,99803.63
2022-11-16T13:58:20.653Z,99799.88
2022-11-16T14:00:59.431Z,99800.50
2022-11-16T14:03:28.954Z,99794.50
2022-11-16T14:05:56.963Z,99798.84
2022-11-16T14:08:28.022Z,99799.31
2022-11-16T14:10:56.398Z,99796.56
2022-11-16T14:13:49.573Z,99801.66
2022-11-16T14:16:20.178Z,99798.38
2022-11-16T14:18:50.272Z,99795.72
2022-11-16T14:21:17.223Z,99797.50
2022-11-16T14:24:13.344Z,99803.25
2022-11-16T14:27:00.766Z,99803.09
2022-11-16T14:29:34.371Z,99795.44
2022-11-16T14:32:01.609Z,99803.91
2022-11-16T14:34:32.930Z,99801.66
2022-11-16T14:37:01.775Z,99796.66
2022-11-16T14:39:29.956Z,99807.69
2022-11-16T14:41:57.404Z,99804.28
2022-11-16T14:44:24.941Z,99805.16
2022-11-16T14:46:51.592Z,99799.94
2022-11-16T14:49:18.911Z,99802.41
2022-11-16T14:51:47.470Z,99794.66
2022-11-16T14:54:15.484Z,99800.59
2022-11-16T14:56:57.882Z,99797.22
2022-11-16T14:59:27.481Z,99810.03
2022-11-16T15:01:57.040Z,99801.47
2022-11-16T15:04:27.316Z,99797.81
2022-11-16T15:06:58.412Z,99801.28
2022-11-16T15:09:29.777Z,99789.78
2022-11-16T15:12:15.414Z,99796.25
2022-11-16T15:14:54.724Z,99806.66
2022-11-16T15:17:22.542Z,99797.28
2022-11-16T15:19:55.529Z,99796.25
2022-11-16T15:22:22.496Z,99799.94
2022-11-16T15:25:15.618Z,99799.47
2022-11-16T15:27:42.447Z,99790.03
2022-11-16T15:30:15.228Z,99796.66
2022-11-16T15:32:42.806Z,99798.34
2022-11-16T15:35:14.043Z,99790.34
2022-11-16T15:37:40.673Z,99790.22
2022-11-16T15:40:08.773Z,99778.84
2022-11-16T15:42:35.392Z,99786.75
2022-11-16T15:45:01.991Z,99776.09
2022-11-16T15:47:28.885Z,99787.41
2022-11-16T15:50:01.454Z,99789.88
2022-11-16T15:52:56.050Z,99784.50
2022-11-16T15:55:37.771Z,99796.47
2022-11-16T15:58:06.523Z,99782.31
2022-11-16T16:00:35.760Z,99787.50
2022-11-16T16:03:05.295Z,99784.88
2022-11-16T16:05:37.170Z,99788.53
2022-11-16T16:08:05.055Z,99792.78
2022-11-16T16:10:32.605Z,99789.94
2022-11-16T16:13:01.509Z,99783.25
2022-11-16T16:15:37.197Z,99785.06
2022-11-16T16:18:10.934Z,99777.59
2022-11-16T16:20:42.030Z,99777.97
2022-11-16T16:23:12.008Z,99782.31
2022-11-16T16:25:39.865Z,99769.38
2022-11-16T16:28:12.965Z,99773.56
2022-11-16T16:30:39.917Z,99774.75
2022-11-16T16:33:06.593Z,99776.19
2022-11-16T16:35:33.321Z,99772.78
2022-11-16T16:38:01.977Z,99776.38
2022-11-16T16:40:29.045Z,99772.41
2022-11-16T16:42:56.080Z,99776.47
2022-11-16T16:45:39.995Z,99787.59
2022-11-16T16:48:10.168Z,99779.88
2022-11-16T16:50:39.288Z,99772.13
2022-11-16T16:53:06.074Z,99783.44
2022-11-16T16:55:36.957Z,99780.13
2022-11-16T16:58:04.436Z,99779.09
2022-11-16T17:00:31.092Z,99780.59
2022-11-16T17:02:58.629Z,99782.41
2022-11-16T17:05:26.408Z,99768.66
2022-11-16T17:07:56.442Z,99777.78
2022-11-16T17:10:23.234Z,99774.97
2022-11-16T17:12:50.061Z,99771.38
2022-11-16T17:15:19.548Z,99782.03
2022-11-16T17:17:46.320Z,99782.69
2022-11-16T17:20:13.498Z,99780.34
2022-11-16T17:22:41.945Z,99778.53
2022-11-16T17:25:08.972Z,99775.06
2022-11-16T17:27:35.684Z,99776.81
2022-11-16T17:30:02.326Z,99785.72
2022-11-16T17:32:29.655Z,99780.03
2022-11-16T17:34:58.689Z,99775.44
2022-11-16T17:37:25.420Z,99778.38
2022-11-16T17:39:58.577Z,99783.34
2022-11-16T17:42:27.370Z,99796.63
2022-11-16T17:44:55.825Z,99789.16
2022-11-16T17:47:23.114Z,99791.91
2022-11-16T17:49:49.897Z,99792.75
2022-11-16T17:52:16.914Z,99795.38
2022-11-16T17:54:43.939Z,99798.88
2022-11-16T17:57:10.824Z,99798.78
2022-11-16T17:59:37.514Z,99794.34
2022-11-16T18:02:04.121Z,99804.63
2022-11-16T18:04:30.974Z,99794.28
2022-11-16T18:06:59.761Z,99791.06
2022-11-16T18:09:26.462Z,99795.47
2022-11-16T18:11:53.069Z,99788.41
2022-11-16T18:14:19.702Z,99793.13
2022-11-16T18:16:48.007Z,99796.47
2022-11-16T18:19:15.815Z,99793.75
2022-11-16T18:21:42.598Z,99797.25
2022-11-16T18:24:09.471Z,99794.69
2022-11-16T18:26:36.173Z,99803.34
2022-11-16T18:29:02.942Z,99794.69
2022-11-16T18:31:30.240Z,99797.72
2022-11-16T18:33:56.871Z,99804.03
2022-11-16T18:36:23.485Z,99814.38
2022-11-16T18:38:50.229Z,99811.56
2022-11-16T18:41:19.820Z,99800.31
2022-11-16T18:43:51.455Z,99801.84
2022-11-16T18:46:19.050Z,99819.47
2022-11-16T18:48:46.893Z,99813.06
2022-11-16T18:51:14.153Z,99809.41
2022-11-16T18:53:40.902Z,99797.59
2022-11-16T18:56:07.823Z,99803.72
2022-11-16T18:58:52.074Z,99799.66
2022-11-16T19:01:20.152Z,99795.03
2022-11-16T19:03:46.971Z,99795.03
2022-11-16T19:06:15.696Z,99796.41
2022-11-16T19:08:42.786Z,99785.91
2022-11-16T19:11:13.547Z,99779.66
2022-11-16T19:13:40.613Z,99795.69
2022-11-16T19:16:08.319Z,99791.25
2022-11-16T19:18:35.482Z,99799.56
2022-11-16T19:21:12.097Z,99797.53
2022-11-16T19:23:39.518Z,99795.19
2022-11-16T19:26:06.408Z,99794.25
2022-11-16T19:28:37.016Z,99802.81
2022-11-16T19:31:13.943Z,99790.66
2022-11-16T19:33:40.844Z,99791.72
2022-11-16T19:36:08.710Z,99788.97
2022-11-16T19:38:35.531Z,99784.44
2022-11-16T19:41:02.314Z,99795.63
2022-11-16T19:43:29.063Z,99793.13
2022-11-16T19:45:55.775Z,99807.59
2022-11-16T19:48:22.409Z,99810.81
2022-11-16T19:50:49.031Z,99809.78
2022-11-16T19:53:15.825Z,99809.63
2022-11-16T19:55:44.286Z,99809.88
2022-11-16T19:58:11.009Z,99807.19
2022-11-16T20:00:37.802Z,99812.41
2022-11-16T20:03:04.541Z,99808.66
2022-11-16T20:05:33.273Z,99817.16
2022-11-16T20:08:07.128Z,99815.00
2022-11-16T20:10:39.267Z,99815.09
2022-11-16T20:13:10.291Z,99828.97
2022-11-16T20:15:37.342Z,99831.19
2022-11-16T20:18:04.271Z,99837.91
2022-11-16T20:20:31.896Z,99832.97
2022-11-16T20:22:59.487Z,99836.00
2022-11-16T20:25:26.433Z,99835.75
2022-11-16T20:27:53.358Z,99835.25
2022-11-16T20:30:20.364Z,99829.69
2022-11-16T20:32:47.078Z,99829.16
2022-11-16T20:35:18.808Z,99831.63
2022-11-16T20:37:45.833Z,99842.00
2022-11-16T20:40:12.668Z,99822.09
2022-11-16T20:42:39.251Z,99836.31
2022-11-16T20:45:06.897Z,99848.47
2022-11-16T20:47:33.602Z,99845.91
2022-11-16T20:50:00.273Z,99838.00
2022-11-16T20:52:26.962Z,99845.16
2022-11-16T20:54:54.117Z,99842.78
2022-11-16T20:57:20.930Z,99850.41
2022-11-16T20:59:50.874Z,99849.22
2022-11-16T21:02:17.496Z,99845.41
2022-11-16T21:04:47.030Z,99836.13
2022-11-16T21:07:14.411Z,99838.78
2022-11-16T21:09:59.851Z,99845.31
2022-11-16T21:12:48.386Z,99838.84
2022-11-16T21:15:15.374Z,99838.44
2022-11-16T21:17:42.170Z,99835.88
2022-11-16T21:22:58.582Z,99835.63
2022-11-16T21:25:25.827Z,99839.19
2022-11-16T21:27:52.577Z,99839.03
2022-11-16T21:30:19.380Z,99842.69
2022-11-16T21:32:46.275Z,99842.41
2022-11-16T21:35:15.403Z,99832.91
2022-11-16T21:37:42.841Z,99830.88
2022-11-16T21:40:11.148Z,99837.66
2022-11-16T21:42:38.538Z,99833.41
2022-11-16T21:45:06.394Z,99837.25
2022-11-16T21:47:33.677Z,99827.38
2022-11-16T21:52:48.561Z,99838.94
2022-11-16T21:55:16.066Z,99840.47
2022-11-16T21:57:46.103Z,99847.03
2022-11-16T22:00:13.604Z,99835.94
2022-11-16T22:02:44.117Z,99847.69
2022-11-16T22:05:29.904Z,99838.59
2022-11-16T22:07:57.015Z,99835.63
2022-11-16T22:10:24.155Z,99828.41
2022-11-16T22:12:53.132Z,99832.38
2022-11-16T22:15:19.965Z,99842.91
2022-11-16T22:17:46.879Z,99836.63
2022-11-16T22:20:14.077Z,99833.81
2022-11-16T22:22:40.998Z,99841.31
2022-11-16T22:25:08.202Z,99843.41
2022-11-16T22:27:47.015Z,99850.19
2022-11-16T22:30:22.223Z,99833.22
2022-11-16T22:32:49.008Z,99842.56
2022-11-16T22:35:15.923Z,99850.06
2022-11-16T22:37:42.760Z,99845.22
2022-11-16T22:40:13.597Z,99841.84
2022-11-16T22:42:43.469Z,99846.72
2022-11-16T22:45:10.671Z,99844.78
2022-11-16T22:47:37.823Z,99852.09
2022-11-16T22:50:04.709Z,99853.84
2022-11-16T22:52:31.658Z,99863.66
2022-11-16T22:54:58.403Z,99854.13
2022-11-16T22:57:25.195Z,99854.84
2022-11-16T22:59:52.162Z,99856.81
2022-11-16T23:02:19.037Z,99848.31
2022-11-16T23:04:45.959Z,99845.41
2022-11-16T23:07:12.858Z,99840.94
2022-11-16T23:09:39.991Z,99833.28
2022-11-16T23:12:25.427Z,99838.22
2022-11-16T23:15:10.939Z,99832.13
2022-11-16T23:17:37.704Z,99826.88
2022-11-16T23:20:23.256Z,99814.19
2022-11-16T23:23:08.618Z,99829.66
2022-11-16T23:25:54.016Z,99826.56
2022-11-16T23:28:20.647Z,99816.03
2022-11-16T23:30:47.511Z,99809.53
2022-11-16T23:33:14.113Z,99814.34
2022-11-16T23:35:40.734Z,99802.34
2022-11-16T23:38:07.733Z,99815.16
2022-11-16T23:40:35.773Z,99813.78
2022-11-16T23:43:21.614Z,99809.50
2022-11-16T23:45:51.002Z,99802.88
2022-11-16T23:48:18.547Z,99804.19
2022-11-16T23:50:45.856Z,99803.34
2022-11-16T23:53:13.045Z,99782.66
2022-11-16T23:55:40.344Z,99791.06
2022-11-16T23:58:08.000Z,99787.94
